Terminal Aerodrome Forecast
Issued by NWS

Home | Current Version | Previous Version | Text Only | Print | Product List | Glossary On
Versions: 1 2 3 4 5 6 7 8 9 10 11 12 13 14 15 16 17 18 19
000
FTUS41 KBGM 302340
TAFITH
TAF
KITH 302340Z 0100/0124 17007KT P6SM -SHRA SCT015 BKN030
      TEMPO 0100/0103 3SM TSRA OVC015CB
     FM010700 18006KT 4SM -SHRA BR OVC012
     FM011400 25008G14KT P6SM BKN040 PROB30 0116/0120 3SM TSRA
      OVC025CB=

USA.gov is the U.S. government's official web portal to all federal, state and local government web resources and services.